Time;durP1;ratioP1;P1;durP2;ratioP2;P2;SDS_P1;SDS_P2;PMS_P1;PMS_P2;Temp;Humidity;BMP_temperature;BMP_pressure;BME280_temperature;BME280_humidity;BME280_pressure;Samples;Min_cycle;Max_cycle;Signal;HPM_P1;HPM_P2
2021/06/10 00:00:04;;;;;;;18.95;12.75;;;;;;;15.31;74.45;102359.63;5081172;28;20051;-73
2021/06/10 00:02:31;;;;;;;22.23;14.45;;;;;;;15.33;76.01;102373.03;5080486;28;20066;-73
2021/06/10 00:04:59;;;;;;;23.15;13.95;;;;;;;15.29;75.29;102374.94;5083168;28;20059;-72
2021/06/10 00:07:26;;;;;;;28.75;15.73;;;;;;;15.22;75.92;102380.50;5080643;28;20065;-72
2021/06/10 00:09:54;;;;;;;21.90;13.20;;;;;;;15.18;76.38;102371.66;5086612;28;20079;-72
2021/06/10 00:12:22;;;;;;;26.88;16.13;;;;;;;15.12;76.44;102374.53;5072037;28;20064;-72
2021/06/10 00:14:50;;;;;;;25.75;14.57;;;;;;;15.11;75.84;102370.06;5079739;28;20109;-71
2021/06/10 00:17:18;;;;;;;27.67;14.80;;;;;;;15.06;75.93;102372.84;5074493;28;20062;-71
2021/06/10 00:19:46;;;;;;;25.48;13.40;;;;;;;15.03;76.63;102364.88;5078345;28;20098;-71
2021/06/10 00:22:13;;;;;;;25.55;13.82;;;;;;;15.03;76.86;102361.31;5081474;28;20065;-77
2021/06/10 00:24:40;;;;;;;23.58;13.75;;;;;;;15.00;77.02;102359.59;5084260;28;20777;-78
2021/06/10 00:27:09;;;;;;;21.83;13.23;;;;;;;14.96;76.61;102352.53;5082350;28;20056;-78
2021/06/10 00:29:36;;;;;;;23.25;13.23;;;;;;;14.94;77.24;102359.75;5081419;28;20075;-78
2021/06/10 00:32:04;;;;;;;27.63;14.65;;;;;;;14.94;77.89;102357.06;5078649;28;20578;-78
2021/06/10 00:34:31;;;;;;;21.65;13.15;;;;;;;14.93;77.97;102361.56;5075757;28;20064;-78
2021/06/10 00:36:59;;;;;;;21.80;13.43;;;;;;;14.90;77.39;102358.06;5077387;28;20062;-77
2021/06/10 00:39:26;;;;;;;22.80;13.40;;;;;;;14.85;77.88;102365.38;5082849;28;20056;-78
2021/06/10 00:41:53;;;;;;;25.35;12.93;;;;;;;14.82;77.28;102370.81;5074123;28;20078;-78
2021/06/10 00:44:22;;;;;;;22.15;13.85;;;;;;;14.75;77.45;102359.34;5077490;28;20074;-77
2021/06/10 00:46:49;;;;;;;21.50;12.25;;;;;;;14.75;77.38;102359.34;5076722;28;20067;-78
2021/06/10 00:49:16;;;;;;;17.38;10.80;;;;;;;14.76;77.87;102371.84;5080408;28;20063;-78
2021/06/10 00:51:44;;;;;;;20.23;12.35;;;;;;;14.69;77.44;102364.88;5080319;28;20059;-78
2021/06/10 00:54:11;;;;;;;22.42;13.77;;;;;;;14.66;78.30;102356.88;5074725;28;20063;-78
2021/06/10 00:56:39;;;;;;;21.75;12.15;;;;;;;14.63;77.30;102355.16;5077080;28;21401;-79
2021/06/10 00:59:06;;;;;;;21.02;12.35;;;;;;;14.61;77.03;102348.94;5074384;28;20056;-77
2021/06/10 01:01:35;;;;;;;22.25;12.43;;;;;;;14.62;78.42;102348.00;5078180;28;20110;-77
2021/06/10 01:04:03;;;;;;;19.48;11.73;;;;;;;14.58;77.86;102349.00;5074245;28;20064;-77
2021/06/10 01:06:35;;;;;;;19.23;12.32;;;;;;;14.53;78.21;102349.09;5080299;28;20052;-78
2021/06/10 01:09:05;;;;;;;21.95;12.50;;;;;;;14.53;78.16;102353.59;5074457;28;20152;-76
2021/06/10 01:11:42;;;;;;;22.13;11.55;;;;;;;14.54;78.56;102347.28;5077720;28;20406;-77
2021/06/10 01:14:16;;;;;;;23.50;13.15;;;;;;;14.58;78.05;102346.31;5073396;28;20451;-77
2021/06/10 01:16:48;;;;;;;19.90;12.13;;;;;;;14.57;77.73;102347.22;5081297;28;20064;-79
2021/06/10 01:19:19;;;;;;;17.40;10.88;;;;;;;14.53;77.19;102345.53;5076450;28;20064;-80
2021/06/10 01:21:48;;;;;;;19.83;12.18;;;;;;;14.53;77.50;102341.03;5094692;27;20123;-78
2021/06/10 01:24:35;;;;;;;19.40;11.50;;;;;;;14.52;77.16;102343.75;5077749;28;20102;-79
2021/06/10 01:27:17;;;;;;;19.75;11.90;;;;;;;14.50;77.41;102342.91;5079353;28;20167;-77
2021/06/10 01:29:49;;;;;;;17.63;10.95;;;;;;;14.49;77.24;102350.09;5078300;28;20062;-78
2021/06/10 01:32:19;;;;;;;19.35;11.32;;;;;;;14.46;77.75;102342.13;5076801;28;20062;-77
2021/06/10 01:34:48;;;;;;;17.42;10.43;;;;;;;14.44;77.29;102340.38;5076131;28;20056;-79
2021/06/10 01:37:17;;;;;;;17.10;10.13;;;;;;;14.42;76.58;102347.59;5078634;28;20094;-78
2021/06/10 01:39:46;;;;;;;16.10;9.68;;;;;;;14.40;76.73;102336.88;5076490;28;20060;-78
2021/06/10 01:42:17;;;;;;;17.30;10.82;;;;;;;14.41;77.36;102337.78;5077865;28;20068;-77
2021/06/10 01:44:47;;;;;;;16.65;10.50;;;;;;;14.38;76.93;102330.69;5080236;28;20097;-78
2021/06/10 01:47:16;;;;;;;16.75;9.68;;;;;;;14.35;76.93;102333.44;5075668;28;20113;-77
2021/06/10 01:49:44;;;;;;;18.80;10.90;;;;;;;14.30;77.11;102325.50;5079313;28;20865;-78
2021/06/10 01:52:11;;;;;;;18.70;10.40;;;;;;;14.25;76.81;102321.16;5078703;28;20052;-78
2021/06/10 01:54:39;;;;;;;17.63;10.45;;;;;;;14.23;76.80;102320.31;5078219;28;20056;-80
2021/06/10 01:57:08;;;;;;;16.23;10.38;;;;;;;14.23;76.78;102320.31;5075930;28;20051;-79
2021/06/10 01:59:37;;;;;;;16.95;9.32;;;;;;;14.19;76.41;102316.81;5081670;28;20096;-78
2021/06/10 02:02:07;;;;;;;16.63;10.25;;;;;;;14.17;76.26;102308.78;5074447;28;20059;-78
2021/06/10 02:04:35;;;;;;;15.63;8.93;;;;;;;14.13;75.84;102306.22;5078179;28;20401;-72
2021/06/10 02:07:03;;;;;;;16.42;9.82;;;;;;;14.13;76.54;102301.75;5073687;28;20064;-71
2021/06/10 02:09:31;;;;;;;15.73;9.00;;;;;;;14.09;76.14;102300.03;5081022;28;20063;-71
2021/06/10 02:12:00;;;;;;;14.63;8.93;;;;;;;14.05;76.04;102301.03;5073562;28;20056;-72
2021/06/10 02:14:29;;;;;;;15.68;8.63;;;;;;;14.04;76.57;102301.94;5079915;28;20060;-72
2021/06/10 02:16:59;;;;;;;14.77;9.18;;;;;;;14.06;76.66;102301.91;5072753;28;20060;-71
2021/06/10 02:19:27;;;;;;;15.90;9.30;;;;;;;14.00;76.30;102303.81;5077074;28;20059;-72
2021/06/10 02:21:54;;;;;;;15.05;8.88;;;;;;;13.96;75.76;102303.91;5071421;28;20079;-75
2021/06/10 02:24:23;;;;;;;13.95;7.93;;;;;;;13.89;76.21;102295.13;5077724;28;20056;-74
2021/06/10 02:26:51;;;;;;;16.08;8.20;;;;;;;13.86;76.39;102288.94;5072104;28;20071;-72
2021/06/10 02:29:22;;;;;;;16.60;9.27;;;;;;;13.86;76.67;102286.28;5076976;28;20118;-77
2021/06/10 02:31:50;;;;;;;16.40;9.50;;;;;;;13.85;77.00;102281.84;5070954;28;20177;-75
2021/06/10 02:34:21;;;;;;;16.13;9.35;;;;;;;13.83;76.94;102285.44;5077902;28;20095;-71
2021/06/10 02:36:48;;;;;;;20.52;9.63;;;;;;;13.88;77.43;102284.47;5069885;28;20150;-73
2021/06/10 02:39:18;;;;;;;14.65;9.00;;;;;;;13.83;77.34;102282.75;5075944;28;20054;-72
2021/06/10 02:41:50;;;;;;;16.38;8.43;;;;;;;13.75;76.68;102279.34;5070616;28;20061;-73
2021/06/10 02:44:20;;;;;;;14.82;8.90;;;;;;;13.68;77.35;102283.09;5077334;28;20117;-76
2021/06/10 02:46:48;;;;;;;14.55;9.07;;;;;;;13.62;78.26;102285.91;5071344;28;20093;-75
2021/06/10 02:49:19;;;;;;;16.58;8.95;;;;;;;13.64;78.34;102284.97;5078562;28;20056;-73
2021/06/10 02:51:52;;;;;;;;;;;;;;;13.62;78.55;102276.06;5074158;28;20060;-75
2021/06/10 02:54:25;;;;;;;18.58;9.02;;;;;;;13.59;78.60;102283.31;5074568;28;19986;-83
2021/06/10 02:56:54;;;;;;;16.67;8.70;;;;;;;13.57;78.81;102277.06;5076712;28;20060;-83
2021/06/10 02:59:24;;;;;;;16.40;9.65;;;;;;;13.49;78.66;102279.06;5072488;28;20136;-83
2021/06/10 03:01:54;;;;;;;15.80;9.52;;;;;;;13.54;79.77;102290.56;5076344;28;20102;-84
2021/06/10 03:04:23;;;;;;;17.45;10.52;;;;;;;13.52;79.49;102287.91;5073724;28;20452;-83
2021/06/10 03:06:54;;;;;;;19.67;11.38;;;;;;;13.44;79.65;102274.66;5080549;28;20143;-81
2021/06/10 03:09:23;;;;;;;22.08;12.20;;;;;;;13.59;80.81;102289.53;5075087;28;20358;-80
2021/06/10 03:11:52;;;;;;;20.42;11.98;;;;;;;13.53;79.71;102276.25;5082001;28;20063;-82
2021/06/10 03:14:23;;;;;;;22.92;13.80;;;;;;;13.62;79.93;102280.53;5080374;28;20055;-79
2021/06/10 03:16:51;;;;;;;22.65;12.57;;;;;;;13.64;79.85;102278.72;5083299;28;20066;-82
2021/06/10 03:19:20;;;;;;;27.05;13.55;;;;;;;13.70;80.49;102281.25;5081053;28;20084;-83
2021/06/10 03:21:48;;;;;;;27.45;14.25;;;;;;;13.73;79.87;102275.81;5086716;28;20055;-82
2021/06/10 03:24:18;;;;;;;26.80;16.05;;;;;;;13.77;79.53;102285.59;5086271;28;20091;-82
2021/06/10 03:26:49;;;;;;;28.02;15.57;;;;;;;13.72;79.39;102278.53;5084579;28;20109;-81
2021/06/10 03:29:18;;;;;;;27.30;15.23;;;;;;;13.76;78.69;102280.25;5084118;28;20078;-81
2021/06/10 03:31:46;;;;;;;26.70;14.55;;;;;;;13.78;78.47;102275.72;5084220;28;20052;-82
2021/06/10 03:34:17;;;;;;;26.75;15.55;;;;;;;13.81;78.37;102270.31;5076201;28;20050;-77
2021/06/10 03:36:45;;;;;;;29.48;14.60;;;;;;;13.77;77.78;102272.19;5076923;28;20063;-75
2021/06/10 03:39:16;;;;;;;23.98;14.70;;;;;;;13.76;77.65;102266.84;5077803;28;20810;-80
2021/06/10 03:41:45;;;;;;;25.98;14.32;;;;;;;13.77;77.59;102273.94;5082140;28;20106;-80
2021/06/10 03:44:14;;;;;;;27.80;14.15;;;;;;;13.73;77.24;102266.91;5082220;28;20130;-81
2021/06/10 03:46:42;;;;;;;27.60;15.07;;;;;;;13.77;77.53;102282.91;5082571;28;20048;-83
2021/06/10 03:49:11;;;;;;;26.65;14.25;;;;;;;13.77;76.87;102277.53;5077057;28;20115;-83
2021/06/10 03:51:39;;;;;;;25.30;13.27;;;;;;;13.68;76.99;102260.75;5079914;28;20063;-82
2021/06/10 03:54:07;;;;;;;26.27;14.23;;;;;;;13.74;76.76;102269.56;5081144;28;21596;-81
2021/06/10 03:56:35;;;;;;;22.27;12.88;;;;;;;13.74;76.73;102261.50;5075095;28;20048;-80
2021/06/10 03:59:04;;;;;;;24.85;13.73;;;;;;;13.79;76.45;102254.22;5080954;28;20047;-80
2021/06/10 04:01:32;;;;;;;24.92;11.95;;;;;;;13.83;76.13;102255.03;5077293;28;20106;-81
2021/06/10 04:04:00;;;;;;;24.63;11.90;;;;;;;13.87;75.46;102253.16;5082567;28;20056;-85
2021/06/10 04:06:31;;;;;;;22.60;11.90;;;;;;;13.93;75.40;102259.28;5075624;28;20061;-81
2021/06/10 04:08:59;;;;;;;19.85;10.93;;;;;;;13.94;74.84;102246.72;5095908;27;20608;-84
2021/06/10 04:11:26;;;;;;;19.67;9.93;;;;;;;13.97;74.91;102242.16;5077683;28;20151;-83
2021/06/10 04:13:54;;;;;;;20.58;11.32;;;;;;;13.98;74.75;102241.25;5081073;28;20105;-81
2021/06/10 04:16:23;;;;;;;18.88;11.27;;;;;;;13.99;75.39;102236.75;5076993;28;20062;-85
2021/06/10 04:18:52;;;;;;;17.30;9.45;;;;;;;14.01;75.05;102235.81;5080540;28;20067;-85
2021/06/10 04:21:20;;;;;;;20.08;9.43;;;;;;;13.99;74.82;102242.13;5076110;28;20055;-85
2021/06/10 04:23:48;;;;;;;20.08;9.73;;;;;;;14.02;74.90;102234.00;5079250;28;20058;-85
2021/06/10 04:26:17;;;;;;;21.00;10.77;;;;;;;14.14;75.14;102230.16;5079459;28;20064;-83
2021/06/10 04:28:46;;;;;;;22.15;10.23;;;;;;;14.20;74.86;102230.88;5079208;28;20143;-81
2021/06/10 04:31:15;;;;;;;19.02;9.82;;;;;;;14.40;74.50;102240.22;5072101;28;20048;-79
2021/06/10 04:33:47;;;;;;;21.42;10.57;;;;;;;14.51;73.85;102222.03;5081771;28;20060;-81
2021/06/10 04:36:15;;;;;;;17.25;9.50;;;;;;;14.52;74.26;102217.53;5076486;28;20618;-83
2021/06/10 04:38:43;;;;;;;18.95;10.73;;;;;;;14.67;74.14;102222.53;5079935;28;20097;-80
2021/06/10 04:41:17;;;;;;;17.83;9.98;;;;;;;14.78;73.84;102230.31;5077256;28;20059;-81
2021/06/10 04:43:45;;;;;;;;;;;;;;;14.96;73.46;102234.25;5080343;28;20454;-82
2021/06/10 04:46:13;;;;;;;20.25;10.32;;;;;;;15.12;72.53;102235.59;5076961;28;19924;-82
2021/06/10 04:48:40;;;;;;;18.73;9.77;;;;;;;15.30;72.33;102239.53;5075028;28;20601;-80
2021/06/10 04:51:09;;;;;;;19.70;9.98;;;;;;;15.41;72.06;102236.53;5078734;28;20075;-83
2021/06/10 04:53:40;;;;;;;15.60;9.45;;;;;;;15.58;71.94;102238.72;5094182;27;20054;-82
2021/06/10 04:56:07;;;;;;;15.98;9.43;;;;;;;15.80;71.52;102248.81;5081958;28;20087;-78
2021/06/10 04:58:35;;;;;;;19.77;9.95;;;;;;;16.02;70.71;102236.47;5074722;28;20058;-78
2021/06/10 05:01:02;;;;;;;17.33;10.05;;;;;;;16.19;70.35;102251.16;5077551;28;20067;-79
2021/06/10 05:03:30;;;;;;;22.27;9.38;;;;;;;16.35;69.84;102257.81;5077521;28;20060;-79
2021/06/10 05:05:57;;;;;;;17.35;9.02;;;;;;;16.69;69.17;102251.25;5075862;28;20069;-82
2021/06/10 05:08:26;;;;;;;18.83;9.18;;;;;;;16.77;68.65;102253.66;5075891;28;20063;-81
2021/06/10 05:10:54;;;;;;;21.85;9.27;;;;;;;17.10;67.68;102259.69;5076009;28;20060;-80
2021/06/10 05:13:22;;;;;;;17.20;7.80;;;;;;;17.29;68.20;102257.16;5075940;28;20056;-79
2021/06/10 05:15:51;;;;;;;18.52;8.98;;;;;;;17.58;67.29;102263.25;5077040;28;20055;-81
2021/06/10 05:18:20;;;;;;;16.42;8.60;;;;;;;17.67;66.05;102251.22;5076943;28;20306;-81
2021/06/10 05:20:48;;;;;;;14.25;8.07;;;;;;;17.91;64.75;102252.09;5075724;28;20162;-83
2021/06/10 05:23:17;;;;;;;15.70;8.38;;;;;;;18.26;64.91;102245.22;5078082;28;20541;-85
2021/06/10 05:25:46;;;;;;;14.13;7.75;;;;;;;18.19;64.37;102248.28;5074596;28;20064;-85
2021/06/10 05:28:15;;;;;;;15.77;6.93;;;;;;;18.66;64.51;102242.63;5078640;28;20071;-81
2021/06/10 05:30:43;;;;;;;15.88;6.95;;;;;;;18.82;62.90;102248.25;5078765;28;20237;-83
2021/06/10 05:33:12;;;;;;;15.32;7.25;;;;;;;18.70;63.06;102256.91;5080877;28;20191;-82
2021/06/10 05:35:42;;;;;;;15.15;6.70;;;;;;;19.02;62.77;102264.50;5079274;28;20652;-81
2021/06/10 05:38:11;;;;;;;11.48;6.32;;;;;;;19.27;62.38;102255.25;5077639;28;20048;-83
2021/06/10 05:40:39;;;;;;;16.80;6.40;;;;;;;19.51;61.47;102255.94;5088183;28;20138;-83
2021/06/10 05:43:09;;;;;;;21.73;7.47;;;;;;;19.37;60.99;102258.41;5100869;28;20368;-80
2021/06/10 05:45:37;;;;;;;12.82;6.55;;;;;;;19.63;60.24;102273.44;5096347;28;20040;-82
2021/06/10 05:48:07;;;;;;;14.43;7.22;;;;;;;19.97;59.66;102255.56;5095949;28;20067;-80
2021/06/10 05:50:41;;;;;;;14.75;7.03;;;;;;;20.47;59.43;102265.69;5078450;28;20051;-81
2021/06/10 05:53:12;;;;;;;18.60;7.93;;;;;;;20.37;59.00;102269.84;5081853;28;20056;-82
2021/06/10 05:55:40;;;;;;;15.98;7.80;;;;;;;19.53;61.27;102272.09;5076784;28;20056;-82
2021/06/10 05:58:14;;;;;;;20.10;7.70;;;;;;;20.36;60.02;102265.34;5080074;28;20064;-83
2021/06/10 06:00:45;;;;;;;16.42;7.78;;;;;;;20.72;59.02;102267.16;5078531;28;20109;-82
2021/06/10 06:03:14;;;;;;;18.90;8.27;;;;;;;20.91;58.75;102267.09;5080102;28;20056;-80
2021/06/10 06:05:44;;;;;;;16.35;7.75;;;;;;;21.08;58.42;102263.47;5078033;28;20056;-81
2021/06/10 06:08:13;;;;;;;16.73;7.53;;;;;;;20.91;57.83;102269.78;5080376;28;20059;-82
2021/06/10 06:10:42;;;;;;;16.17;7.95;;;;;;;21.05;57.42;102269.91;5076006;28;20130;-81
2021/06/10 06:13:12;;;;;;;15.10;7.43;;;;;;;20.95;58.27;102271.38;5074177;28;20160;-80
2021/06/10 06:15:40;;;;;;;15.18;7.88;;;;;;;20.95;57.12;102270.50;5088114;28;20139;-78
2021/06/10 06:18:08;;;;;;;17.52;8.30;;;;;;;21.01;57.42;102281.91;5096187;28;20054;-80
2021/06/10 06:20:36;;;;;;;13.88;7.45;;;;;;;21.53;55.25;102286.34;5089526;28;20090;-84
2021/06/10 06:23:05;;;;;;;13.40;7.90;;;;;;;21.99;55.19;102283.75;5076561;28;20102;-84
2021/06/10 06:25:33;;;;;;;20.95;8.85;;;;;;;21.62;54.72;102287.66;5082241;28;20056;-78
2021/06/10 06:28:01;;;;;;;16.13;8.70;;;;;;;22.08;54.31;102297.75;5076143;28;20056;-80
2021/06/10 06:30:30;;;;;;;18.60;8.20;;;;;;;21.61;55.66;102299.50;5087405;28;20056;-79
2021/06/10 06:32:57;;;;;;;19.27;9.50;;;;;;;21.81;54.97;102301.09;5108214;28;20055;-79
2021/06/10 06:35:25;;;;;;;21.33;9.32;;;;;;;22.51;53.55;102306.19;5095190;28;20056;-79
2021/06/10 06:37:52;;;;;;;16.90;9.32;;;;;;;22.46;53.59;102308.25;5092737;28;20060;-80
2021/06/10 06:40:25;;;;;;;15.15;8.50;;;;;;;21.57;55.56;102306.06;5103716;28;20056;-79
2021/06/10 06:42:53;;;;;;;15.85;9.00;;;;;;;21.64;54.43;102296.63;5120645;28;20056;-79
2021/06/10 06:45:21;;;;;;;21.08;9.15;;;;;;;22.05;54.32;102297.94;5104747;28;20064;-79
2021/06/10 06:47:49;;;;;;;14.88;8.70;;;;;;;22.40;53.67;102300.47;5108598;28;20044;-79
2021/06/10 06:50:17;;;;;;;18.25;8.50;;;;;;;22.83;51.42;102295.16;5100932;28;20435;-80
2021/06/10 06:52:45;;;;;;;13.98;8.10;;;;;;;23.22;50.77;102294.56;5107007;28;20348;-79
2021/06/10 06:55:12;;;;;;;16.67;8.15;;;;;;;23.42;50.13;102289.72;5105681;28;20165;-78
2021/06/10 06:57:42;;;;;;;16.70;8.57;;;;;;;23.06;50.06;102283.78;5096141;28;20075;-80
2021/06/10 07:00:11;;;;;;;17.50;8.55;;;;;;;22.75;50.13;102296.53;5104263;28;20056;-76
2021/06/10 07:02:39;;;;;;;17.00;8.02;;;;;;;23.18;49.50;102293.03;5098337;28;20435;-76
2021/06/10 07:05:09;;;;;;;14.43;8.05;;;;;;;23.63;48.58;102291.09;5101368;28;20052;-76
2021/06/10 07:07:37;;;;;;;17.98;8.35;;;;;;;23.61;48.67;102289.41;5100411;28;20040;-77
2021/06/10 07:10:05;;;;;;;16.67;8.80;;;;;;;23.17;47.98;102295.84;5094464;28;20067;-76
2021/06/10 07:12:33;;;;;;;19.42;8.52;;;;;;;23.80;47.92;102300.00;5095284;28;20052;-77
2021/06/10 07:15:00;;;;;;;15.35;7.72;;;;;;;24.27;47.16;102311.50;5099353;28;20056;-76
2021/06/10 07:17:30;;;;;;;17.33;8.30;;;;;;;24.43;45.99;102302.19;5096333;28;20056;-76
2021/06/10 07:20:00;;;;;;;14.40;8.15;;;;;;;24.34;45.29;102304.66;5098591;28;20093;-76
2021/06/10 07:22:31;;;;;;;15.52;8.55;;;;;;;24.60;46.09;102302.91;5092150;28;20044;-77
2021/06/10 07:24:59;;;;;;;17.17;9.15;;;;;;;23.78;46.74;102311.00;5085778;28;20341;-78
2021/06/10 07:27:36;;;;;;;16.80;9.43;;;;;;;23.46;48.10;102315.78;5104425;27;20059;-79
2021/06/10 07:30:06;;;;;;;17.10;8.88;;;;;;;23.02;49.12;102333.00;5097758;28;20055;-78
2021/06/10 07:32:35;;;;;;;19.58;10.77;;;;;;;23.50;47.68;102331.84;5094327;28;20051;-79
2021/06/10 07:35:05;;;;;;;17.15;8.45;;;;;;;24.74;45.95;102327.41;5098678;28;20090;-79
2021/06/10 07:37:35;;;;;;;15.80;8.50;;;;;;;25.58;44.15;102325.16;5092811;28;20438;-78
2021/06/10 07:40:10;;;;;;;15.80;8.73;;;;;;;25.02;43.82;102316.41;5091721;28;20076;-79
2021/06/10 07:42:38;;;;;;;17.25;8.90;;;;;;;25.15;43.35;102315.44;5094647;28;20063;-78
2021/06/10 07:45:07;;;;;;;15.60;8.55;;;;;;;24.73;43.65;102320.19;5095888;28;20048;-80
2021/06/10 07:47:35;;;;;;;17.33;8.70;;;;;;;25.58;42.54;102329.78;5097642;28;20050;-78
2021/06/10 07:50:05;;;;;;;15.55;8.45;;;;;;;25.83;42.09;102320.63;5092215;28;20437;-79
2021/06/10 07:52:38;;;;;;;16.98;9.23;;;;;;;25.30;42.32;102331.72;5114521;28;20044;-81
2021/06/10 07:55:07;;;;;;;15.88;8.15;;;;;;;25.34;42.90;102328.69;5098201;28;20072;-80
2021/06/10 07:57:36;;;;;;;15.05;7.63;;;;;;;25.77;42.08;102329.28;5077619;28;20062;-80
2021/06/10 08:00:09;;;;;;;15.32;8.27;;;;;;;25.43;40.49;102334.47;5081008;28;20198;-77
2021/06/10 08:02:44;;;;;;;17.15;9.65;;;;;;;24.43;43.93;102345.81;5077977;28;20052;-78
2021/06/10 08:05:14;;;;;;;14.02;8.52;;;;;;;25.33;42.90;102332.38;5078704;28;20052;-79
2021/06/10 08:07:55;;;;;;;15.77;7.88;;;;;;;26.51;40.72;102340.22;5079587;28;20071;-78
2021/06/10 08:10:24;;;;;;;16.17;8.85;;;;;;;26.15;40.32;102331.06;5075615;28;20057;-78
2021/06/10 08:12:52;;;;;;;16.67;9.25;;;;;;;25.85;42.04;102344.16;5079966;28;20057;-79
2021/06/10 08:15:25;;;;;;;15.35;9.05;;;;;;;26.24;40.63;102342.19;5074772;28;20063;-78
2021/06/10 08:17:55;;;;;;;18.08;9.70;;;;;;;25.06;42.67;102361.63;5079823;28;20090;-79
2021/06/10 08:20:25;;;;;;;17.85;9.65;;;;;;;26.24;41.82;102349.53;5077634;28;20063;-75
2021/06/10 08:22:58;;;;;;;18.73;8.85;;;;;;;26.31;41.55;102350.81;5075626;28;20393;-76
2021/06/10 08:25:29;;;;;;;16.58;9.43;;;;;;;26.12;41.25;102350.44;5090700;28;20472;-73
2021/06/10 08:28:01;;;;;;;19.17;9.63;;;;;;;25.93;41.72;102335.34;5081080;28;20056;-74
2021/06/10 08:30:33;;;;;;;15.93;9.32;;;;;;;27.20;39.80;102335.72;5073269;28;20067;-75
2021/06/10 08:33:02;;;;;;;16.27;8.27;;;;;;;27.55;37.91;102325.72;5081383;28;20277;-72
2021/06/10 08:35:31;;;;;;;16.25;9.07;;;;;;;26.29;40.74;102339.13;5075909;28;20295;-74
2021/06/10 08:38:07;;;;;;;15.25;8.93;;;;;;;26.90;38.65;102329.94;5079181;28;20146;-72
2021/06/10 08:40:37;;;;;;;20.08;9.25;;;;;;;26.43;40.62;102338.06;5070005;28;20493;-73
2021/06/10 08:43:12;;;;;;;14.43;8.63;;;;;;;26.88;39.08;102337.41;5082361;28;20137;-74
2021/06/10 08:45:50;;;;;;;15.75;7.78;;;;;;;26.96;38.06;102335.81;5072145;28;20165;-75
2021/06/10 08:48:20;;;;;;;15.57;9.07;;;;;;;26.89;38.54;102347.38;5078655;28;20063;-74
2021/06/10 08:50:50;;;;;;;14.55;8.50;;;;;;;27.25;39.18;102332.63;5068556;28;20044;-74
2021/06/10 08:53:20;;;;;;;20.08;10.05;;;;;;;25.96;41.63;102335.16;5075267;28;20474;-73
2021/06/10 08:55:54;;;;;;;12.82;7.57;;;;;;;26.51;40.45;102332.00;5078760;28;20060;-73
2021/06/10 08:58:31;;;;;;;14.27;7.57;;;;;;;26.99;38.69;102332.84;5079792;28;20052;-75
2021/06/10 09:01:01;;;;;;;14.23;7.70;;;;;;;27.44;38.06;102333.94;5073641;28;20064;-75
2021/06/10 09:03:32;;;;;;;14.68;7.00;;;;;;;27.58;37.79;102339.16;5075477;28;20142;-74
2021/06/10 09:06:02;;;;;;;15.13;8.50;;;;;;;26.55;40.46;102328.91;5078414;28;20075;-75
2021/06/10 09:08:32;;;;;;;16.60;8.55;;;;;;;27.06;39.30;102337.84;5073649;28;20060;-74
2021/06/10 09:11:12;;;;;;;15.10;7.30;;;;;;;26.86;38.82;102339.41;5078260;28;20087;-74
2021/06/10 09:13:43;;;;;;;13.23;6.70;;;;;;;27.51;36.82;102327.81;5074837;28;20074;-72
2021/06/10 09:16:23;;;;;;;12.63;7.10;;;;;;;28.17;37.17;102334.41;5081776;28;20056;-72
2021/06/10 09:18:57;;;;;;;14.82;7.80;;;;;;;27.45;38.07;102332.91;5071696;28;20068;-72
2021/06/10 09:21:31;;;;;;;;;;;;;;;27.39;37.62;102334.28;5080852;28;20067;-77
2021/06/10 09:27:03;;;;;;;17.27;8.10;;;;;;;27.67;37.53;102330.19;5138494;27;20156;-76
2021/06/10 09:29:39;;;;;;;16.75;8.02;;;;;;;27.04;38.03;102335.22;5131874;27;20082;-78
2021/06/10 09:32:13;;;;;;;19.58;8.68;;;;;;;27.16;38.34;102339.72;5134405;27;20104;-77
2021/06/10 09:34:46;;;;;;;16.52;8.50;;;;;;;26.71;39.10;102339.56;5127161;27;20085;-78
2021/06/10 09:37:23;;;;;;;16.35;9.35;;;;;;;27.26;38.75;102338.97;5124397;27;20062;-81
2021/06/10 09:39:53;;;;;;;12.98;8.15;;;;;;;27.56;37.87;102331.06;5123915;27;20514;-77
2021/06/10 09:42:27;;;;;;;14.60;8.07;;;;;;;27.84;37.50;102327.91;5132540;27;20055;-77
2021/06/10 09:44:57;;;;;;;17.33;9.40;;;;;;;26.76;40.74;102341.97;5131554;27;20046;-77
2021/06/10 09:47:29;;;;;;;18.02;9.00;;;;;;;27.69;39.33;102330.94;5132484;27;20066;-78
2021/06/10 09:49:57;;;;;;;19.87;9.10;;;;;;;27.56;37.94;102331.06;5132720;27;20067;-73
2021/06/10 09:52:25;;;;;;;15.52;9.18;;;;;;;27.64;38.53;102321.34;5134066;27;20075;-73
2021/06/10 09:54:55;;;;;;;16.83;9.82;;;;;;;27.00;39.45;102330.97;5131364;27;20059;-72
2021/06/10 09:57:22;;;;;;;17.05;9.43;;;;;;;26.72;41.36;102333.13;5132253;27;20055;-74
2021/06/10 09:59:53;;;;;;;14.82;9.40;;;;;;;27.54;38.94;102326.72;5129281;27;20494;-72
2021/06/10 10:02:25;;;;;;;21.60;10.13;;;;;;;27.65;38.65;102331.31;5126270;27;20059;-72
2021/06/10 10:05:05;;;;;;;18.88;9.63;;;;;;;27.97;38.85;102331.44;5130252;27;20061;-73
2021/06/10 10:07:35;;;;;;;15.32;8.95;;;;;;;28.63;38.28;102333.25;5130476;27;20066;-79
2021/06/10 10:10:05;;;;;;;19.15;9.70;;;;;;;27.47;39.18;102334.56;5134914;27;20054;-72
2021/06/10 10:12:33;;;;;;;15.70;9.20;;;;;;;27.94;38.79;102335.31;5128052;27;20070;-72
2021/06/10 10:15:02;;;;;;;19.10;9.80;;;;;;;27.61;38.80;102336.16;5130005;27;20047;-73
2021/06/10 10:17:29;;;;;;;16.38;8.48;;;;;;;28.01;39.29;102340.28;5131507;27;20091;-73
2021/06/10 10:19:57;;;;;;;19.05;10.10;;;;;;;27.92;39.12;102339.16;5131088;27;20054;-73
2021/06/10 10:22:25;;;;;;;18.23;9.57;;;;;;;28.34;38.98;102338.47;5129305;27;20137;-74
2021/06/10 10:24:53;;;;;;;19.95;10.65;;;;;;;28.38;38.46;102337.19;5132793;27;20417;-72
2021/06/10 10:27:23;;;;;;;21.10;10.25;;;;;;;27.15;40.96;102337.97;5127428;27;20073;-74
2021/06/10 10:29:51;;;;;;;18.30;10.45;;;;;;;27.49;40.67;102329.81;5128768;27;21019;-73
2021/06/10 10:32:23;;;;;;;17.35;9.80;;;;;;;28.11;39.69;102333.91;5131411;27;20534;-73
2021/06/10 10:34:59;;;;;;;21.17;11.20;;;;;;;27.67;40.06;102337.53;5130575;27;20145;-72
2021/06/10 10:37:28;;;;;;;18.05;9.60;;;;;;;28.36;38.88;102330.97;5121890;27;20357;-74
2021/06/10 10:39:58;;;;;;;19.80;10.40;;;;;;;28.00;41.05;102331.19;5116899;27;20052;-72
2021/06/10 10:42:32;;;;;;;20.73;10.93;;;;;;;27.32;41.35;102324.81;5114937;27;20062;-73
2021/06/10 10:45:19;;;;;;;22.58;11.40;;;;;;;27.11;41.38;102336.47;5117559;27;20096;-73
2021/06/10 10:47:56;;;;;;;18.80;11.52;;;;;;;27.93;40.55;102329.94;5114055;27;20066;-72
2021/06/10 10:50:36;;;;;;;21.40;10.75;;;;;;;27.89;41.11;102333.91;5116888;27;20060;-73
2021/06/10 10:53:07;;;;;;;18.88;10.35;;;;;;;27.91;40.49;102327.31;5120085;27;20051;-73
2021/06/10 10:55:35;;;;;;;19.60;10.65;;;;;;;27.48;39.79;102325.34;5115392;27;20077;-72
2021/06/10 10:58:07;;;;;;;17.77;10.40;;;;;;;27.72;40.26;102322.47;5104391;27;20051;-72
2021/06/10 11:00:55;;;;;;;18.48;9.90;;;;;;;27.13;40.19;102329.00;5106790;27;20059;-72
2021/06/10 11:03:29;;;;;;;19.60;10.80;;;;;;;27.16;40.51;102331.50;5103907;27;20078;-71
2021/06/10 11:05:58;;;;;;;16.60;9.68;;;;;;;28.01;40.24;102321.97;5105475;27;20047;-71
2021/06/10 11:08:55;;;;;;;14.57;7.97;;;;;;;28.07;39.58;102318.69;5108767;27;20058;-71
2021/06/10 11:11:25;;;;;;;16.02;7.90;;;;;;;28.84;37.54;102317.69;5107345;27;20059;-72
2021/06/10 11:13:53;;;;;;;15.05;8.48;;;;;;;28.80;36.56;102318.94;5104207;27;20063;-73
2021/06/10 11:16:20;;;;;;;16.52;9.07;;;;;;;27.81;37.70;102319.97;5108189;27;20559;-72
2021/06/10 11:18:52;;;;;;;15.07;7.20;;;;;;;28.92;37.30;102308.75;5106151;27;20135;-73
2021/06/10 11:21:52;;;;;;;16.98;7.97;;;;;;;29.17;37.02;102315.75;5107706;27;20198;-72
2021/06/10 11:24:22;;;;;;;14.73;9.07;;;;;;;28.02;39.80;102318.19;5099693;27;20070;-72
2021/06/10 11:27:01;;;;;;;15.43;7.97;;;;;;;29.07;38.46;102309.28;5098780;27;20683;-73
2021/06/10 11:29:30;;;;;;;16.90;8.05;;;;;;;29.58;37.38;102313.91;5112926;27;20069;-73